createdAt,value
2022-11-24T00:00:01.521Z,16.97
2022-11-24T00:00:11.498Z,16.99
2022-11-24T00:00:21.499Z,17.01
2022-11-24T00:00:31.503Z,17.00
2022-11-24T00:00:41.505Z,16.98
2022-11-24T00:00:51.500Z,16.98
2022-11-24T00:01:01.502Z,16.97
2022-11-24T00:01:11.516Z,16.97
2022-11-24T00:01:21.501Z,16.97
2022-11-24T00:01:31.500Z,16.97
2022-11-24T00:01:41.507Z,16.97
2022-11-24T00:01:51.532Z,16.96
2022-11-24T00:02:01.566Z,16.96
2022-11-24T00:02:11.679Z,16.97
2022-11-24T00:02:21.603Z,16.96
2022-11-24T00:02:31.652Z,16.95
2022-11-24T00:02:41.698Z,16.95
2022-11-24T00:02:51.633Z,16.96
2022-11-24T00:03:01.653Z,16.95
2022-11-24T00:03:11.649Z,16.96
2022-11-24T00:03:21.569Z,16.96
2022-11-24T00:03:31.584Z,16.95
2022-11-24T00:03:41.614Z,16.96
2022-11-24T00:03:51.513Z,16.96
2022-11-24T00:04:01.524Z,16.95
2022-11-24T00:04:11.524Z,16.95
2022-11-24T00:04:21.517Z,16.95
2022-11-24T00:04:31.731Z,16.96
2022-11-24T00:04:41.520Z,16.96
2022-11-24T00:04:51.520Z,16.95
2022-11-24T00:05:01.508Z,16.96
2022-11-24T00:05:11.518Z,16.95
2022-11-24T00:05:21.524Z,16.94
2022-11-24T00:05:31.529Z,16.95
2022-11-24T00:05:41.525Z,16.96
2022-11-24T00:05:51.527Z,16.95
2022-11-24T00:06:01.510Z,16.96
2022-11-24T00:06:11.530Z,16.96
2022-11-24T00:06:21.537Z,16.95
2022-11-24T00:06:31.532Z,16.96
2022-11-24T00:06:41.537Z,16.96
2022-11-24T00:06:51.533Z,16.95
2022-11-24T00:07:01.535Z,16.94
2022-11-24T00:07:11.577Z,16.94
2022-11-24T00:07:21.565Z,16.93
2022-11-24T00:07:31.592Z,16.94
2022-11-24T00:07:41.600Z,16.94
2022-11-24T00:07:51.560Z,16.94
2022-11-24T00:08:01.537Z,16.95
2022-11-24T00:08:11.537Z,16.94
2022-11-24T00:08:21.539Z,16.94
2022-11-24T00:08:31.541Z,16.94
2022-11-24T00:08:41.543Z,16.94
2022-11-24T00:08:51.544Z,16.95
2022-11-24T00:09:01.543Z,16.94
2022-11-24T00:09:11.549Z,16.93
2022-11-24T00:09:21.545Z,16.94
2022-11-24T00:09:31.546Z,16.93
2022-11-24T00:09:41.545Z,16.94
2022-11-24T00:09:51.546Z,16.95
2022-11-24T00:10:01.552Z,16.94
2022-11-24T00:10:11.550Z,16.94
2022-11-24T00:10:21.549Z,16.95
2022-11-24T00:10:31.532Z,16.94
2022-11-24T00:10:41.531Z,16.96
2022-11-24T00:10:51.554Z,16.93
2022-11-24T00:11:01.536Z,16.94
2022-11-24T00:11:11.535Z,16.94
2022-11-24T00:11:21.553Z,16.93
2022-11-24T00:11:31.539Z,16.95
2022-11-24T00:11:41.555Z,16.95
2022-11-24T00:11:51.556Z,16.95
2022-11-24T00:12:01.558Z,16.95
2022-11-24T00:12:11.559Z,16.95
2022-11-24T00:12:21.543Z,16.95
2022-11-24T00:12:31.560Z,16.94
2022-11-24T00:12:41.563Z,16.92
2022-11-24T00:12:51.566Z,16.95
2022-11-24T00:13:01.568Z,16.93
2022-11-24T00:13:11.567Z,16.93
2022-11-24T00:13:21.564Z,16.94
2022-11-24T00:13:31.566Z,16.94
2022-11-24T00:13:41.566Z,16.94
2022-11-24T00:13:51.567Z,16.93
2022-11-24T00:14:01.575Z,16.93
2022-11-24T00:14:11.571Z,16.92
2022-11-24T00:14:21.568Z,16.93
2022-11-24T00:14:31.989Z,16.93
2022-11-24T00:14:41.580Z,16.91
2022-11-24T00:14:51.573Z,16.92
2022-11-24T00:15:01.576Z,16.94
2022-11-24T00:15:11.575Z,16.93
2022-11-24T00:15:21.571Z,16.93
2022-11-24T00:15:31.578Z,16.94
2022-11-24T00:15:41.579Z,16.93
2022-11-24T00:15:51.578Z,16.93
2022-11-24T00:16:01.580Z,16.93
2022-11-24T00:16:11.627Z,16.93
2022-11-24T00:16:21.676Z,16.93
2022-11-24T00:16:31.651Z,16.93
2022-11-24T00:16:41.660Z,16.92
2022-11-24T00:16:51.608Z,16.90
2022-11-24T00:17:01.632Z,16.91
2022-11-24T00:17:11.633Z,16.91
2022-11-24T00:17:21.581Z,16.90
2022-11-24T00:17:31.586Z,16.92
2022-11-24T00:17:41.587Z,16.91
2022-11-24T00:17:51.584Z,16.92
2022-11-24T00:18:01.583Z,16.91
2022-11-24T00:18:11.585Z,16.93
2022-11-24T00:18:21.589Z,16.90
2022-11-24T00:18:31.588Z,16.92
2022-11-24T00:18:41.597Z,16.90
2022-11-24T00:18:51.593Z,16.90
2022-11-24T00:19:01.589Z,16.92
2022-11-24T00:19:15.788Z,16.92
2022-11-24T00:19:22.593Z,16.90
2022-11-24T00:19:31.592Z,16.89
2022-11-24T00:19:41.595Z,16.89
2022-11-24T00:19:51.601Z,16.91
2022-11-24T00:20:01.596Z,16.90
2022-11-24T00:20:11.594Z,16.89
2022-11-24T00:20:21.598Z,16.90
2022-11-24T00:20:31.596Z,16.90
2022-11-24T00:20:41.598Z,16.91
2022-11-24T00:20:51.598Z,16.90
2022-11-24T00:21:01.608Z,16.91
2022-11-24T00:21:11.600Z,16.90
2022-11-24T00:21:21.602Z,16.92
2022-11-24T00:21:31.605Z,16.90
2022-11-24T00:21:41.602Z,16.91
2022-11-24T00:21:51.604Z,16.92
2022-11-24T00:22:01.604Z,16.91
2022-11-24T00:22:11.606Z,16.92
2022-11-24T00:22:21.609Z,16.92
2022-11-24T00:22:31.608Z,16.91
2022-11-24T00:22:41.610Z,16.91
2022-11-24T00:22:51.611Z,16.90
2022-11-24T00:23:01.609Z,16.91
2022-11-24T00:23:11.610Z,16.91
2022-11-24T00:23:21.613Z,16.91
2022-11-24T00:23:31.614Z,16.92
2022-11-24T00:23:41.620Z,16.91
2022-11-24T00:23:51.613Z,16.92
2022-11-24T00:24:01.618Z,16.91
2022-11-24T00:24:11.617Z,16.92
2022-11-24T00:24:21.617Z,16.92
2022-11-24T00:24:31.758Z,16.91
2022-11-24T00:24:41.626Z,16.91
2022-11-24T00:24:51.621Z,16.92
2022-11-24T00:25:01.629Z,16.93
2022-11-24T00:25:11.620Z,16.92
2022-11-24T00:25:21.635Z,16.92
2022-11-24T00:25:31.624Z,16.92
2022-11-24T00:25:41.625Z,16.92
2022-11-24T00:25:51.625Z,16.92
2022-11-24T00:26:01.636Z,16.91
2022-11-24T00:26:11.627Z,16.91
2022-11-24T00:26:21.631Z,16.90
2022-11-24T00:26:31.630Z,16.89
2022-11-24T00:26:41.630Z,16.90
2022-11-24T00:26:51.632Z,16.92
2022-11-24T00:27:01.632Z,16.89
2022-11-24T00:27:11.632Z,16.88
2022-11-24T00:27:21.632Z,16.91
2022-11-24T00:27:31.635Z,16.91
2022-11-24T00:27:41.636Z,16.89
2022-11-24T00:27:51.637Z,16.91
2022-11-24T00:28:01.638Z,16.91
2022-11-24T00:28:11.637Z,16.92
2022-11-24T00:28:21.641Z,16.91
2022-11-24T00:28:31.639Z,16.92
2022-11-24T00:28:41.639Z,16.91
2022-11-24T00:28:51.649Z,16.91
2022-11-24T00:29:01.641Z,16.93
2022-11-24T00:29:11.650Z,16.92
2022-11-24T00:29:21.651Z,16.92
2022-11-24T00:29:31.627Z,16.92
2022-11-24T00:29:41.643Z,16.92
2022-11-24T00:29:51.669Z,16.93
2022-11-24T00:30:01.644Z,16.92
2022-11-24T00:30:11.645Z,16.93
2022-11-24T00:30:21.644Z,16.91
2022-11-24T00:30:31.676Z,16.91
2022-11-24T00:30:41.703Z,16.91
2022-11-24T00:30:51.673Z,16.90
2022-11-24T00:31:01.726Z,16.91
2022-11-24T00:31:16.776Z,16.91
2022-11-24T00:31:22.731Z,16.88
2022-11-24T00:31:31.722Z,16.89
2022-11-24T00:31:41.651Z,16.88
2022-11-24T00:31:51.653Z,16.89
2022-11-24T00:32:01.652Z,16.89
2022-11-24T00:32:11.655Z,16.89
2022-11-24T00:32:21.656Z,16.90
2022-11-24T00:32:31.660Z,16.89
2022-11-24T00:32:41.656Z,16.90
2022-11-24T00:32:51.664Z,16.90
2022-11-24T00:33:01.659Z,16.89
2022-11-24T00:33:11.641Z,16.90
2022-11-24T00:33:21.662Z,16.89
2022-11-24T00:33:31.666Z,16.90
2022-11-24T00:33:41.662Z,16.89
2022-11-24T00:33:51.664Z,16.90
2022-11-24T00:34:01.665Z,16.89
2022-11-24T00:34:11.670Z,16.90
2022-11-24T00:34:21.668Z,16.89
2022-11-24T00:34:32.046Z,16.89
2022-11-24T00:34:41.650Z,16.89
2022-11-24T00:34:51.670Z,16.88
2022-11-24T00:35:01.676Z,16.89
2022-11-24T00:35:11.670Z,16.89
2022-11-24T00:35:21.672Z,16.90
2022-11-24T00:35:31.678Z,16.89
2022-11-24T00:35:41.673Z,16.88
2022-11-24T00:35:51.672Z,16.89
2022-11-24T00:36:01.678Z,16.89
2022-11-24T00:36:11.674Z,16.89
2022-11-24T00:36:21.663Z,16.89
2022-11-24T00:36:31.678Z,16.89
2022-11-24T00:36:41.681Z,16.89
2022-11-24T00:36:51.678Z,16.90
2022-11-24T00:37:01.683Z,16.90
2022-11-24T00:37:11.682Z,16.89
2022-11-24T00:37:21.690Z,16.89
2022-11-24T00:37:31.688Z,16.88
2022-11-24T00:37:41.685Z,16.89
2022-11-24T00:37:51.684Z,16.88
2022-11-24T00:38:01.694Z,16.89
2022-11-24T00:38:11.682Z,16.88
2022-11-24T00:38:21.683Z,16.89
2022-11-24T00:38:31.684Z,16.88
2022-11-24T00:38:41.687Z,16.87
2022-11-24T00:38:51.687Z,16.89
2022-11-24T00:39:01.675Z,16.88
2022-11-24T00:39:11.681Z,16.89
2022-11-24T00:39:21.691Z,16.86
2022-11-24T00:39:31.692Z,16.87
2022-11-24T00:39:41.696Z,16.86
2022-11-24T00:39:51.697Z,16.87
2022-11-24T00:40:01.698Z,16.87
2022-11-24T00:40:11.696Z,16.88
2022-11-24T00:40:21.696Z,16.88
2022-11-24T00:40:34.943Z,16.87
2022-11-24T00:40:41.702Z,16.86
2022-11-24T00:40:51.696Z,16.86
2022-11-24T00:41:01.699Z,16.87
2022-11-24T00:41:11.697Z,16.87
2022-11-24T00:41:21.749Z,16.88
2022-11-24T00:41:31.710Z,16.87
2022-11-24T00:41:41.703Z,16.87
2022-11-24T00:41:51.704Z,16.86
2022-11-24T00:42:01.702Z,16.86
2022-11-24T00:42:11.703Z,16.87
2022-11-24T00:42:21.705Z,16.86
2022-11-24T00:42:31.707Z,16.86
2022-11-24T00:42:41.689Z,16.87
2022-11-24T00:42:51.710Z,16.88
2022-11-24T00:43:01.713Z,16.85
2022-11-24T00:43:11.708Z,16.86
2022-11-24T00:43:21.710Z,16.86
2022-11-24T00:43:31.711Z,16.86
2022-11-24T00:43:41.711Z,16.87
2022-11-24T00:43:51.713Z,16.85
2022-11-24T00:44:01.713Z,16.86
2022-11-24T00:44:11.710Z,16.87
2022-11-24T00:44:21.697Z,16.88
2022-11-24T00:44:32.105Z,16.87
2022-11-24T00:44:41.719Z,16.86
2022-11-24T00:44:51.717Z,16.87
2022-11-24T00:45:12.938Z,16.87
2022-11-24T00:45:14.111Z,16.85
2022-11-24T00:45:21.725Z,16.83
2022-11-24T00:45:31.721Z,16.84
2022-11-24T00:45:41.876Z,16.85
2022-11-24T00:45:51.832Z,16.85
2022-11-24T00:46:01.860Z,16.86
2022-11-24T00:46:11.859Z,16.86
2022-11-24T00:46:21.907Z,16.85
2022-11-24T00:46:31.891Z,16.85
2022-11-24T00:46:41.822Z,16.86
2022-11-24T00:46:51.837Z,16.85
2022-11-24T00:47:01.862Z,16.85
2022-11-24T00:47:11.851Z,16.86
2022-11-24T00:47:21.851Z,16.86
2022-11-24T00:47:31.728Z,16.86
2022-11-24T00:47:41.731Z,16.85
2022-11-24T00:47:51.732Z,16.87
2022-11-24T00:48:01.737Z,16.85
2022-11-24T00:48:11.734Z,16.85
2022-11-24T00:48:21.735Z,16.85
2022-11-24T00:48:31.733Z,16.86
2022-11-24T00:48:41.736Z,16.85
2022-11-24T00:48:51.746Z,16.86
2022-11-24T00:49:01.754Z,16.85
2022-11-24T00:49:11.741Z,16.84
2022-11-24T00:49:21.740Z,16.85
2022-11-24T00:49:31.739Z,16.84
2022-11-24T00:49:41.741Z,16.84
2022-11-24T00:49:51.744Z,16.84
2022-11-24T00:50:01.738Z,16.85
2022-11-24T00:50:11.741Z,16.86
2022-11-24T00:50:21.747Z,16.84
2022-11-24T00:50:31.742Z,16.84
2022-11-24T00:50:41.746Z,16.86
2022-11-24T00:50:51.749Z,16.84
2022-11-24T00:51:01.747Z,16.85
2022-11-24T00:51:11.745Z,16.86
2022-11-24T00:51:21.746Z,16.85
2022-11-24T00:51:31.760Z,16.86
2022-11-24T00:51:41.750Z,16.83
2022-11-24T00:51:51.749Z,16.86
2022-11-24T00:52:01.753Z,16.85
2022-11-24T00:52:11.751Z,16.85
2022-11-24T00:52:21.756Z,16.84
2022-11-24T00:52:31.755Z,16.86
2022-11-24T00:52:41.754Z,16.86
2022-11-24T00:52:51.756Z,16.86
2022-11-24T00:53:01.760Z,16.84
2022-11-24T00:53:11.762Z,16.86
2022-11-24T00:53:21.758Z,16.86
2022-11-24T00:53:31.761Z,16.85
2022-11-24T00:53:41.760Z,16.86
2022-11-24T00:53:51.762Z,16.85
2022-11-24T00:54:01.764Z,16.85
2022-11-24T00:54:11.772Z,16.85
2022-11-24T00:54:21.761Z,16.86
2022-11-24T00:54:32.016Z,16.86
2022-11-24T00:54:41.763Z,16.86
2022-11-24T00:54:51.769Z,16.86
2022-11-24T00:55:01.792Z,16.87
2022-11-24T00:55:11.768Z,16.88
2022-11-24T00:55:21.768Z,16.86
2022-11-24T00:55:31.768Z,16.86
2022-11-24T00:55:41.770Z,16.88
2022-11-24T00:55:51.773Z,16.87
2022-11-24T00:56:01.771Z,16.86
2022-11-24T00:56:11.774Z,16.87
2022-11-24T00:56:21.777Z,16.86
2022-11-24T00:56:31.771Z,16.86
2022-11-24T00:56:41.777Z,16.87
2022-11-24T00:56:51.778Z,16.86
2022-11-24T00:57:01.792Z,16.85
2022-11-24T00:57:11.778Z,16.85
2022-11-24T00:57:21.782Z,16.87
2022-11-24T00:57:31.778Z,16.86
2022-11-24T00:57:41.782Z,16.86
2022-11-24T00:57:51.784Z,16.86
2022-11-24T00:58:01.782Z,16.85
2022-11-24T00:58:11.782Z,16.86
2022-11-24T00:58:21.789Z,16.84
2022-11-24T00:58:31.782Z,16.85
2022-11-24T00:58:41.784Z,16.85
2022-11-24T00:58:51.791Z,16.86
2022-11-24T00:59:01.787Z,16.85
2022-11-24T00:59:11.791Z,16.87
2022-11-24T00:59:21.798Z,16.83
2022-11-24T00:59:31.789Z,16.82
2022-11-24T00:59:41.791Z,16.83
2022-11-24T00:59:51.797Z,16.83
2022-11-24T01:00:01.823Z,16.83
2022-11-24T01:00:11.792Z,16.84
2022-11-24T01:00:21.797Z,16.84
2022-11-24T01:00:31.797Z,16.84
2022-11-24T01:00:41.794Z,16.83
2022-11-24T01:00:51.794Z,16.81
2022-11-24T01:01:01.833Z,16.82
2022-11-24T01:01:11.848Z,16.83
2022-11-24T01:01:21.891Z,16.82
2022-11-24T01:01:31.859Z,16.84
2022-11-24T01:01:41.971Z,16.83
2022-11-24T01:01:51.859Z,16.83
2022-11-24T01:02:01.819Z,16.84
2022-11-24T01:02:11.902Z,16.84
2022-11-24T01:02:21.846Z,16.83
2022-11-24T01:02:31.912Z,16.82
2022-11-24T01:02:41.860Z,16.82
2022-11-24T01:02:51.822Z,16.83
2022-11-24T01:03:01.873Z,16.82
2022-11-24T01:03:11.805Z,16.83
2022-11-24T01:03:21.808Z,16.82
2022-11-24T01:03:31.818Z,16.83
2022-11-24T01:03:41.812Z,16.83
2022-11-24T01:03:51.818Z,16.83
2022-11-24T01:04:01.810Z,16.81
2022-11-24T01:04:11.814Z,16.83
2022-11-24T01:04:21.816Z,16.82
2022-11-24T01:04:32.243Z,16.83
2022-11-24T01:04:41.797Z,16.83
2022-11-24T01:04:51.818Z,16.84
2022-11-24T01:05:01.818Z,16.83
2022-11-24T01:05:11.820Z,16.84
2022-11-24T01:05:21.822Z,16.83
2022-11-24T01:05:31.802Z,16.84
2022-11-24T01:05:41.824Z,16.84
2022-11-24T01:05:51.826Z,16.85
2022-11-24T01:06:01.821Z,16.83
2022-11-24T01:06:11.824Z,16.85
2022-11-24T01:06:21.829Z,16.85
2022-11-24T01:06:31.807Z,16.83
2022-11-24T01:06:41.826Z,16.83
2022-11-24T01:06:51.826Z,16.85
2022-11-24T01:07:01.826Z,16.86
2022-11-24T01:07:11.861Z,16.84
2022-11-24T01:07:21.978Z,16.84
2022-11-24T01:07:31.877Z,16.85
2022-11-24T01:07:41.886Z,16.83
2022-11-24T01:07:51.901Z,16.82
2022-11-24T01:08:01.831Z,16.82
2022-11-24T01:08:11.834Z,16.83
2022-11-24T01:08:21.834Z,16.83
2022-11-24T01:08:31.838Z,16.85
2022-11-24T01:08:41.841Z,16.84
2022-11-24T01:08:51.836Z,16.83
2022-11-24T01:09:01.841Z,16.84
2022-11-24T01:09:11.844Z,16.82
2022-11-24T01:09:21.838Z,16.83
2022-11-24T01:09:31.841Z,16.84
2022-11-24T01:09:41.845Z,16.86
2022-11-24T01:09:51.842Z,16.84
2022-11-24T01:10:01.843Z,16.84
2022-11-24T01:10:11.849Z,16.84
2022-11-24T01:10:21.843Z,16.83
2022-11-24T01:10:31.851Z,16.83
2022-11-24T01:10:41.851Z,16.82
2022-11-24T01:10:51.846Z,16.81
2022-11-24T01:11:01.847Z,16.86
2022-11-24T01:11:11.830Z,16.83
2022-11-24T01:11:21.847Z,16.85
2022-11-24T01:11:31.849Z,16.84
2022-11-24T01:11:41.854Z,16.84
2022-11-24T01:11:51.851Z,16.83
2022-11-24T01:12:01.851Z,16.83
2022-11-24T01:12:11.853Z,16.82
2022-11-24T01:12:21.850Z,16.82
2022-11-24T01:12:31.853Z,16.83
2022-11-24T01:12:41.856Z,16.82
2022-11-24T01:12:51.854Z,16.83
2022-11-24T01:13:01.856Z,16.84
2022-11-24T01:13:11.856Z,16.83
2022-11-24T01:13:21.855Z,16.83
2022-11-24T01:13:31.850Z,16.83
2022-11-24T01:13:41.860Z,16.83
2022-11-24T01:13:51.863Z,16.83
2022-11-24T01:14:01.860Z,16.83
2022-11-24T01:14:11.848Z,16.83
2022-11-24T01:14:21.862Z,16.83
2022-11-24T01:14:32.216Z,16.83
2022-11-24T01:14:41.864Z,16.82
2022-11-24T01:14:51.866Z,16.84
2022-11-24T01:15:01.878Z,16.83
2022-11-24T01:15:11.867Z,16.83
2022-11-24T01:15:21.869Z,16.82
2022-11-24T01:15:31.909Z,16.82
2022-11-24T01:15:41.899Z,16.83
2022-11-24T01:15:51.948Z,16.83
2022-11-24T01:16:01.923Z,16.84
2022-11-24T01:16:12.017Z,16.84
2022-11-24T01:16:21.949Z,16.83
2022-11-24T01:16:31.878Z,16.83
2022-11-24T01:16:41.879Z,16.83
2022-11-24T01:16:51.884Z,16.84
2022-11-24T01:17:01.878Z,16.84
2022-11-24T01:17:11.875Z,16.84
2022-11-24T01:17:21.874Z,16.82
2022-11-24T01:17:31.875Z,16.83
2022-11-24T01:17:41.891Z,16.82
2022-11-24T01:17:51.877Z,16.84
2022-11-24T01:18:01.881Z,16.83
2022-11-24T01:18:11.879Z,16.82
2022-11-24T01:18:21.880Z,16.84
2022-11-24T01:18:31.879Z,16.83
2022-11-24T01:18:41.884Z,16.81
2022-11-24T01:18:51.881Z,16.82
2022-11-24T01:19:01.884Z,16.83
2022-11-24T01:19:11.890Z,16.83
2022-11-24T01:19:21.885Z,16.83
2022-11-24T01:19:31.886Z,16.81
2022-11-24T01:19:41.898Z,16.81
2022-11-24T01:19:51.889Z,16.82
2022-11-24T01:20:01.896Z,16.82
2022-11-24T01:20:11.892Z,16.82
2022-11-24T01:20:21.892Z,16.83
2022-11-24T01:20:31.891Z,16.83
2022-11-24T01:20:41.896Z,16.83
2022-11-24T01:20:51.893Z,16.85
2022-11-24T01:21:05.804Z,16.82
2022-11-24T01:21:12.894Z,16.81
2022-11-24T01:21:21.895Z,16.82
2022-11-24T01:21:31.890Z,16.81
2022-11-24T01:21:41.895Z,16.82
2022-11-24T01:21:51.878Z,16.83
2022-11-24T01:22:01.901Z,16.83
2022-11-24T01:22:11.901Z,16.82
2022-11-24T01:22:21.899Z,16.81
2022-11-24T01:22:31.901Z,16.81
2022-11-24T01:22:41.900Z,16.82
2022-11-24T01:22:51.902Z,16.83
2022-11-24T01:23:01.900Z,16.83
2022-11-24T01:23:11.903Z,16.82
2022-11-24T01:23:21.887Z,16.82
2022-11-24T01:23:31.885Z,16.83
2022-11-24T01:23:41.903Z,16.82
2022-11-24T01:23:51.911Z,16.83
2022-11-24T01:24:01.919Z,16.82
2022-11-24T01:24:11.891Z,16.82
2022-11-24T01:24:21.909Z,16.82
2022-11-24T01:24:32.296Z,16.83
2022-11-24T01:24:41.910Z,16.83
2022-11-24T01:24:51.909Z,16.82
2022-11-24T01:25:01.916Z,16.83
2022-11-24T01:25:11.911Z,16.81
2022-11-24T01:25:21.912Z,16.82
2022-11-24T01:25:31.912Z,16.84
2022-11-24T01:25:41.913Z,16.84
2022-11-24T01:25:51.912Z,16.84
2022-11-24T01:26:01.912Z,16.84
2022-11-24T01:26:11.912Z,16.81
2022-11-24T01:26:21.924Z,16.82
2022-11-24T01:26:31.917Z,16.83
2022-11-24T01:26:41.949Z,16.81
2022-11-24T01:26:51.913Z,16.82
2022-11-24T01:27:01.917Z,16.82
2022-11-24T01:27:11.919Z,16.83
2022-11-24T01:27:21.916Z,16.82
2022-11-24T01:27:31.916Z,16.84
2022-11-24T01:27:41.918Z,16.82
2022-11-24T01:27:51.924Z,16.82
2022-11-24T01:28:01.941Z,16.83
2022-11-24T01:28:11.922Z,16.83
2022-11-24T01:28:21.928Z,16.84
2022-11-24T01:28:31.925Z,16.82
2022-11-24T01:28:46.696Z,16.84
2022-11-24T01:28:52.927Z,16.82
2022-11-24T01:29:01.930Z,16.83
2022-11-24T01:29:11.928Z,16.82
2022-11-24T01:29:21.931Z,16.82
2022-11-24T01:29:31.942Z,16.82
2022-11-24T01:29:41.930Z,16.81
2022-11-24T01:29:51.927Z,16.83
2022-11-24T01:30:01.958Z,16.83
2022-11-24T01:30:11.933Z,16.83
2022-11-24T01:30:21.937Z,16.83
2022-11-24T01:30:31.965Z,16.82
2022-11-24T01:30:41.990Z,16.82
2022-11-24T01:30:52.024Z,16.82
2022-11-24T01:31:02.017Z,16.82
2022-11-24T01:31:12.044Z,16.82
2022-11-24T01:31:22.008Z,16.83
2022-11-24T01:31:31.937Z,16.82
2022-11-24T01:31:41.939Z,16.83
2022-11-24T01:31:51.940Z,16.81
2022-11-24T01:32:01.943Z,16.83
2022-11-24T01:32:11.952Z,16.83
2022-11-24T01:32:21.943Z,16.82
2022-11-24T01:32:31.942Z,16.81
2022-11-24T01:32:41.943Z,16.83
2022-11-24T01:32:51.956Z,16.83
2022-11-24T01:33:01.943Z,16.83
2022-11-24T01:33:11.945Z,16.83
2022-11-24T01:33:21.949Z,16.83
2022-11-24T01:33:31.947Z,16.81
2022-11-24T01:33:41.951Z,16.83
2022-11-24T01:33:51.948Z,16.82
2022-11-24T01:34:01.956Z,16.83
2022-11-24T01:34:11.953Z,16.83
2022-11-24T01:34:21.953Z,16.83
2022-11-24T01:34:32.363Z,16.83
2022-11-24T01:34:41.954Z,16.84
2022-11-24T01:34:51.955Z,16.82
2022-11-24T01:35:01.957Z,16.83
2022-11-24T01:35:11.939Z,16.82
2022-11-24T01:35:21.941Z,16.82
2022-11-24T01:35:31.958Z,16.83
2022-11-24T01:35:41.960Z,16.81
2022-11-24T01:35:51.961Z,16.82
2022-11-24T01:36:01.961Z,16.83
2022-11-24T01:36:11.961Z,16.83
2022-11-24T01:36:21.960Z,16.82
2022-11-24T01:36:31.963Z,16.83
2022-11-24T01:36:41.944Z,16.82
2022-11-24T01:36:51.946Z,16.83
2022-11-24T01:37:01.971Z,16.80
2022-11-24T01:37:11.965Z,16.82
2022-11-24T01:37:21.997Z,16.83
2022-11-24T01:37:31.972Z,16.82
2022-11-24T01:37:41.970Z,16.81
2022-11-24T01:37:51.952Z,16.82
2022-11-24T01:38:01.975Z,16.83
2022-11-24T01:38:11.971Z,16.81
2022-11-24T01:38:22.016Z,16.81
2022-11-24T01:38:31.982Z,16.81
2022-11-24T01:38:41.982Z,16.81
2022-11-24T01:38:51.974Z,16.81
2022-11-24T01:39:01.979Z,16.81
2022-11-24T01:39:11.979Z,16.82
2022-11-24T01:39:21.978Z,16.81
2022-11-24T01:39:31.977Z,16.82
2022-11-24T01:39:41.977Z,16.81
2022-11-24T01:39:51.980Z,16.80
2022-11-24T01:40:01.977Z,16.82
2022-11-24T01:40:11.979Z,16.81
2022-11-24T01:40:21.985Z,16.82
2022-11-24T01:40:31.983Z,16.80
2022-11-24T01:40:41.983Z,16.80
2022-11-24T01:40:51.986Z,16.81
2022-11-24T01:41:01.985Z,16.82
2022-11-24T01:41:11.967Z,16.82
2022-11-24T01:41:21.991Z,16.81
2022-11-24T01:41:31.966Z,16.81
2022-11-24T01:41:41.994Z,16.82
2022-11-24T01:41:51.994Z,16.81
2022-11-24T01:42:01.992Z,16.82
2022-11-24T01:42:11.987Z,16.81
2022-11-24T01:42:22.010Z,16.82
2022-11-24T01:42:31.990Z,16.81
2022-11-24T01:42:41.991Z,16.81
2022-11-24T01:42:51.989Z,16.82
2022-11-24T01:43:01.992Z,16.80
2022-11-24T01:43:11.994Z,16.80
2022-11-24T01:43:21.994Z,16.80
2022-11-24T01:43:31.999Z,16.81
2022-11-24T01:43:41.997Z,16.79
2022-11-24T01:43:52.006Z,16.79
2022-11-24T01:44:01.981Z,16.79
2022-11-24T01:44:12.003Z,16.79
2022-11-24T01:44:21.985Z,16.80
2022-11-24T01:44:32.262Z,16.83
2022-11-24T01:44:42.003Z,16.81
2022-11-24T01:44:52.982Z,16.80
2022-11-24T01:45:02.006Z,16.79
2022-11-24T01:45:12.007Z,16.80
2022-11-24T01:45:22.008Z,16.80
2022-11-24T01:45:32.007Z,16.80
2022-11-24T01:45:42.130Z,16.78
2022-11-24T01:45:52.042Z,16.80
2022-11-24T01:46:02.064Z,16.80
2022-11-24T01:46:12.094Z,16.79
2022-11-24T01:46:22.103Z,16.79
2022-11-24T01:46:32.074Z,16.80
2022-11-24T01:46:42.010Z,16.79
2022-11-24T01:46:51.996Z,16.79
2022-11-24T01:47:02.015Z,16.81
2022-11-24T01:47:12.014Z,16.81
2022-11-24T01:47:22.018Z,16.80
2022-11-24T01:47:32.015Z,16.82
2022-11-24T01:47:42.016Z,16.81
2022-11-24T01:47:52.019Z,16.81
2022-11-24T01:48:02.017Z,16.81
2022-11-24T01:48:12.018Z,16.81
2022-11-24T01:48:27.185Z,16.80
2022-11-24T01:48:33.020Z,16.77
2022-11-24T01:48:42.021Z,16.77
2022-11-24T01:48:52.022Z,16.78
2022-11-24T01:49:02.028Z,16.79
2022-11-24T01:49:12.028Z,16.76
2022-11-24T01:49:22.024Z,16.78
2022-11-24T01:49:32.039Z,16.80
2022-11-24T01:49:42.033Z,16.79
2022-11-24T01:49:52.027Z,16.79
2022-11-24T01:50:02.028Z,16.78
2022-11-24T01:50:12.029Z,16.78
2022-11-24T01:50:22.030Z,16.79
2022-11-24T01:50:32.030Z,16.80
2022-11-24T01:50:42.030Z,16.79
2022-11-24T01:50:52.032Z,16.79
2022-11-24T01:51:02.032Z,16.79
2022-11-24T01:51:12.037Z,16.80
2022-11-24T01:51:22.037Z,16.78
2022-11-24T01:51:32.036Z,16.80
2022-11-24T01:51:42.036Z,16.79
2022-11-24T01:51:52.038Z,16.79
2022-11-24T01:52:02.037Z,16.81
2022-11-24T01:52:12.040Z,16.80
2022-11-24T01:52:22.040Z,16.79
2022-11-24T01:52:32.039Z,16.81
2022-11-24T01:52:42.043Z,16.79
2022-11-24T01:52:52.046Z,16.82
2022-11-24T01:53:02.059Z,16.80
2022-11-24T01:53:12.046Z,16.79
2022-11-24T01:53:22.043Z,16.80
2022-11-24T01:53:32.045Z,16.80
2022-11-24T01:53:42.050Z,16.80
2022-11-24T01:53:52.053Z,16.79
2022-11-24T01:54:02.049Z,16.81
2022-11-24T01:54:12.054Z,16.82
2022-11-24T01:54:22.048Z,16.81
2022-11-24T01:54:32.536Z,16.82
2022-11-24T01:54:42.056Z,16.80
2022-11-24T01:54:52.050Z,16.79
2022-11-24T01:55:02.057Z,16.80
2022-11-24T01:55:12.053Z,16.79
2022-11-24T01:55:22.055Z,16.79
2022-11-24T01:55:32.053Z,16.80
2022-11-24T01:55:42.055Z,16.83
2022-11-24T01:55:52.057Z,16.81
2022-11-24T01:56:02.057Z,16.82
2022-11-24T01:56:12.055Z,16.81
2022-11-24T01:56:22.058Z,16.79
2022-11-24T01:56:32.057Z,16.82
2022-11-24T01:56:42.058Z,16.81
2022-11-24T01:56:52.061Z,16.82
2022-11-24T01:57:02.058Z,16.82
2022-11-24T01:57:12.121Z,16.81
2022-11-24T01:57:22.065Z,16.82
2022-11-24T01:57:32.059Z,16.83
2022-11-24T01:57:42.062Z,16.81
2022-11-24T01:57:52.070Z,16.82
2022-11-24T01:58:02.069Z,16.81
2022-11-24T01:58:12.064Z,16.81
2022-11-24T01:58:22.093Z,16.80
2022-11-24T01:58:32.077Z,16.81
2022-11-24T01:58:42.067Z,16.82
2022-11-24T01:58:52.067Z,16.81
2022-11-24T01:59:02.068Z,16.81
2022-11-24T01:59:12.071Z,16.81
2022-11-24T01:59:22.080Z,16.81
2022-11-24T01:59:32.073Z,16.79
2022-11-24T01:59:42.072Z,16.81
2022-11-24T01:59:52.073Z,16.82
2022-11-24T02:00:02.073Z,16.81
2022-11-24T02:00:12.056Z,16.81
2022-11-24T02:00:22.076Z,16.80
2022-11-24T02:00:32.075Z,16.80
2022-11-24T02:00:42.079Z,16.81
2022-11-24T02:00:52.077Z,16.80
2022-11-24T02:01:02.098Z,16.80
2022-11-24T02:01:12.111Z,16.80
2022-11-24T02:01:22.143Z,16.81
2022-11-24T02:01:32.163Z,16.80
2022-11-24T02:01:42.163Z,16.80
2022-11-24T02:01:52.090Z,16.82
2022-11-24T02:02:02.080Z,16.80
2022-11-24T02:02:12.120Z,16.81
2022-11-24T02:02:22.161Z,16.81
2022-11-24T02:02:32.177Z,16.82
2022-11-24T02:02:42.164Z,16.79
2022-11-24T02:02:52.133Z,16.79
2022-11-24T02:03:02.139Z,16.81
2022-11-24T02:03:12.086Z,16.78
2022-11-24T02:03:22.086Z,16.79
2022-11-24T02:03:32.093Z,16.79
2022-11-24T02:03:42.083Z,16.79
2022-11-24T02:03:52.085Z,16.78
2022-11-24T02:04:02.090Z,16.78
2022-11-24T02:04:12.093Z,16.79
2022-11-24T02:04:22.090Z,16.78
2022-11-24T02:04:32.557Z,16.79
2022-11-24T02:04:42.091Z,16.79
2022-11-24T02:04:52.089Z,16.79
2022-11-24T02:05:02.089Z,16.78
2022-11-24T02:05:12.093Z,16.78
2022-11-24T02:05:22.089Z,16.78
2022-11-24T02:05:32.089Z,16.78
2022-11-24T02:05:42.093Z,16.78
2022-11-24T02:05:52.093Z,16.78
2022-11-24T02:06:02.096Z,16.77
2022-11-24T02:06:12.102Z,16.76
2022-11-24T02:06:22.098Z,16.76
2022-11-24T02:06:32.109Z,16.75
2022-11-24T02:06:42.100Z,16.78
2022-11-24T02:06:52.100Z,16.78
2022-11-24T02:07:02.100Z,16.76
2022-11-24T02:07:12.242Z,16.77
2022-11-24T02:07:22.175Z,16.78
2022-11-24T02:07:32.148Z,16.77
2022-11-24T02:07:42.167Z,16.77
2022-11-24T02:07:52.199Z,16.78
2022-11-24T02:08:02.102Z,16.75
2022-11-24T02:08:12.110Z,16.76
2022-11-24T02:08:22.106Z,16.78
2022-11-24T02:08:32.107Z,16.78
2022-11-24T02:08:42.112Z,16.77